createdAt,value
2023-02-18T00:04:54.447Z,3.57
2023-02-18T00:09:57.292Z,3.30
2023-02-18T00:15:00.237Z,3.73
2023-02-18T00:20:03.274Z,3.73
2023-02-18T00:25:06.349Z,3.43
2023-02-18T05:34:23.928Z,1.20
2023-02-18T05:39:26.825Z,0.83
2023-02-18T05:44:33.297Z,1.77
2023-02-18T05:49:36.728Z,0.83
2023-02-18T05:54:39.955Z,1.17
2023-02-18T05:59:43.369Z,1.50
2023-02-18T06:04:46.244Z,1.37
2023-02-18T06:09:49.138Z,1.07
2023-02-18T06:14:52.075Z,1.27
2023-02-18T06:19:54.906Z,1.37
2023-02-18T06:24:57.710Z,1.60
2023-02-18T06:30:00.579Z,1.10
2023-02-18T06:35:03.551Z,1.03
2023-02-18T06:40:07.514Z,0.90
2023-02-18T06:45:10.452Z,1.30
2023-02-18T06:50:13.337Z,1.30
2023-02-18T06:55:16.246Z,1.10
2023-02-18T07:00:19.464Z,1.40
2023-02-18T07:05:22.433Z,1.20
2023-02-18T07:10:25.391Z,1.10
2023-02-18T07:15:28.274Z,0.90
2023-02-18T07:20:31.098Z,1.27
2023-02-18T07:25:34.004Z,1.00
2023-02-18T07:30:36.997Z,1.20
2023-02-18T07:35:39.896Z,1.30
2023-02-18T07:40:42.762Z,1.33
2023-02-18T07:45:45.741Z,1.07
2023-02-18T07:50:48.805Z,1.50
2023-02-18T07:55:51.760Z,1.17
2023-02-18T08:00:55.113Z,1.23
2023-02-18T08:05:58.549Z,1.47
2023-02-18T08:11:18.392Z,1.77
2023-02-18T08:16:22.533Z,1.30
2023-02-18T08:21:26.635Z,1.10
2023-02-18T08:26:29.742Z,1.40
2023-02-18T08:31:32.960Z,1.27
2023-02-18T08:36:37.114Z,1.60
2023-02-18T08:41:39.973Z,2.13
2023-02-18T08:46:42.991Z,2.17
2023-02-18T08:51:46.214Z,1.33
2023-02-18T08:56:49.083Z,1.60
2023-02-18T09:01:52.130Z,1.60
2023-02-18T09:06:55.020Z,2.00
2023-02-18T09:11:58.335Z,1.13
2023-02-18T09:17:01.329Z,1.80
2023-02-18T09:22:04.200Z,1.87
2023-02-18T09:27:07.159Z,2.50
2023-02-18T09:32:13.217Z,2.23
2023-02-18T09:37:18.783Z,2.27
2023-02-18T09:42:28.151Z,2.20
2023-02-18T09:47:40.665Z,2.13
2023-02-18T09:52:43.594Z,1.70
2023-02-18T09:57:51.934Z,1.60
2023-02-18T10:03:14.855Z,1.30
2023-02-18T10:08:41.543Z,1.00
2023-02-18T10:13:45.372Z,1.20
2023-02-18T10:18:50.879Z,1.20
2023-02-18T10:24:07.388Z,1.50
2023-02-18T10:29:21.418Z,1.10
2023-02-18T10:34:43.316Z,1.10
2023-02-18T10:39:57.865Z,1.93
2023-02-18T10:45:19.254Z,1.40
2023-02-18T10:50:27.701Z,1.60
2023-02-18T10:55:42.160Z,1.77
2023-02-18T11:00:45.504Z,1.60
2023-02-18T11:05:53.152Z,1.40
2023-02-18T11:10:56.865Z,1.20
2023-02-18T11:16:02.601Z,1.20
2023-02-18T11:21:21.575Z,1.97
2023-02-18T11:26:33.802Z,2.00
2023-02-18T11:31:45.528Z,2.43
2023-02-18T11:36:49.399Z,1.70
2023-02-18T11:42:04.131Z,1.77
2023-02-18T11:47:12.834Z,1.97
2023-02-18T11:52:22.487Z,1.80
2023-02-18T11:57:26.537Z,1.67
2023-02-18T12:02:34.904Z,2.10
2023-02-18T12:07:44.116Z,1.40
2023-02-18T12:13:08.484Z,2.03
2023-02-18T12:18:23.432Z,1.70
2023-02-18T12:23:37.031Z,2.23
2023-02-18T12:29:02.608Z,2.43
2023-02-18T12:34:23.262Z,2.07
2023-02-18T12:40:02.264Z,2.10
2023-02-18T12:45:29.653Z,2.27
2023-02-18T12:51:05.991Z,3.37
2023-02-18T12:56:14.026Z,3.20
2023-02-18T13:01:16.816Z,4.27
2023-02-18T13:06:47.444Z,4.07
2023-02-18T13:11:59.143Z,3.67
2023-02-18T13:17:03.457Z,4.20
2023-02-18T13:22:07.543Z,3.43
2023-02-18T13:27:25.381Z,4.00
2023-02-18T13:32:51.030Z,4.80
2023-02-18T13:38:35.754Z,4.33
2023-02-18T13:43:39.798Z,4.60
2023-02-18T13:49:05.342Z,4.47
2023-02-18T13:54:17.254Z,5.10
2023-02-18T13:59:24.996Z,4.37
2023-02-18T14:04:39.652Z,5.23
2023-02-18T14:09:43.606Z,3.97
2023-02-18T14:14:46.620Z,4.03
2023-02-18T14:20:16.632Z,4.63
2023-02-18T14:25:26.074Z,5.80
2023-02-18T14:30:40.458Z,5.73
2023-02-18T14:35:53.808Z,7.17
2023-02-18T14:41:11.828Z,5.97
2023-02-18T14:46:42.244Z,6.40
2023-02-18T14:51:48.095Z,7.07
2023-02-18T14:56:59.223Z,6.30
2023-02-18T15:02:02.104Z,7.57
2023-02-18T15:07:08.681Z,7.57
2023-02-18T15:12:19.415Z,9.10
2023-02-18T15:17:29.693Z,9.07
2023-02-18T15:22:36.419Z,8.87
2023-02-18T15:27:44.473Z,9.00
2023-02-18T15:32:58.199Z,10.00
2023-02-18T15:38:02.127Z,11.90
2023-02-18T15:43:05.927Z,9.47
2023-02-18T15:48:35.978Z,11.10
2023-02-18T15:53:40.786Z,10.13
2023-02-18T15:58:43.846Z,10.30
2023-02-18T16:03:47.590Z,7.67
2023-02-18T16:09:36.783Z,8.80
2023-02-18T16:14:51.661Z,7.07
2023-02-18T16:20:07.360Z,7.90
2023-02-18T16:25:22.360Z,7.93
2023-02-18T16:30:27.821Z,8.37
2023-02-18T16:35:47.446Z,6.43
2023-02-18T16:40:53.759Z,6.87
2023-02-18T16:46:05.546Z,5.93
2023-02-18T16:51:25.797Z,6.53
2023-02-18T16:56:33.622Z,6.77
2023-02-18T17:01:44.993Z,6.80
2023-02-18T17:06:49.741Z,8.40
2023-02-18T17:11:54.952Z,6.90
2023-02-18T17:16:58.143Z,5.17
2023-02-18T17:22:01.070Z,4.87
2023-02-18T17:27:03.991Z,4.13
2023-02-18T17:32:08.559Z,4.33
2023-02-18T17:37:13.900Z,4.20
2023-02-18T17:42:17.146Z,3.77
2023-02-18T17:47:20.328Z,4.17
2023-02-18T17:52:30.665Z,3.80
2023-02-18T17:57:33.747Z,4.20
2023-02-18T18:02:36.994Z,4.57
2023-02-18T18:07:39.995Z,3.20
2023-02-18T18:12:42.911Z,4.27
2023-02-18T18:17:45.910Z,4.70
2023-02-18T18:22:49.048Z,4.70
2023-02-18T18:27:52.954Z,3.80
2023-02-18T18:32:56.248Z,3.47
2023-02-18T18:37:59.677Z,3.60
2023-02-18T18:43:03.644Z,3.40
2023-02-18T18:48:07.125Z,3.23
2023-02-18T18:53:31.275Z,3.07
2023-02-18T18:58:35.004Z,2.40
2023-02-18T19:03:38.636Z,3.17
2023-02-18T19:08:43.803Z,2.70
2023-02-18T19:13:46.773Z,2.43
2023-02-18T19:18:50.182Z,2.37
2023-02-18T19:23:53.253Z,1.97
2023-02-18T19:28:56.101Z,2.50
2023-02-18T19:33:58.946Z,2.27
2023-02-18T19:39:01.897Z,2.10
2023-02-18T19:44:05.364Z,2.37
2023-02-18T19:49:08.307Z,1.77
2023-02-18T19:54:11.206Z,2.27
2023-02-18T19:59:14.066Z,1.70
2023-02-18T20:04:17.280Z,2.10
2023-02-18T20:09:20.425Z,2.00
2023-02-18T20:14:27.073Z,2.03
2023-02-18T20:19:32.000Z,1.80
2023-02-18T20:24:35.069Z,1.57
2023-02-18T20:29:38.178Z,1.93
2023-02-18T20:34:41.049Z,1.90
2023-02-18T20:39:43.938Z,1.90
2023-02-18T20:44:47.435Z,2.23
2023-02-18T20:49:50.362Z,1.63
2023-02-18T20:54:53.183Z,1.80
2023-02-18T20:59:58.142Z,1.70
2023-02-18T21:05:01.111Z,1.50
2023-02-18T21:10:04.448Z,1.40
2023-02-18T21:15:07.612Z,1.90
2023-02-18T21:20:10.632Z,2.27
2023-02-18T21:25:13.562Z,1.60
2023-02-18T21:30:16.424Z,1.70
2023-02-18T21:35:19.289Z,1.80
2023-02-18T21:40:22.135Z,1.77
2023-02-18T21:45:26.875Z,1.53
2023-02-18T21:50:29.748Z,1.70
2023-02-18T21:55:32.588Z,1.97
2023-02-18T22:00:36.736Z,1.30
2023-02-18T22:05:43.201Z,1.47
2023-02-18T22:10:46.175Z,2.10
2023-02-18T22:15:55.808Z,2.37
2023-02-18T22:20:59.017Z,1.83
2023-02-18T22:26:09.645Z,1.80
2023-02-18T22:31:13.801Z,1.57
2023-02-18T22:36:16.937Z,2.73
2023-02-18T22:41:22.782Z,2.07
2023-02-18T22:46:25.664Z,2.37
2023-02-18T22:51:32.287Z,2.40
2023-02-18T22:56:35.186Z,1.90
2023-02-18T23:01:40.647Z,2.03
2023-02-18T23:07:45.057Z,1.83
2023-02-18T23:12:47.972Z,1.73
2023-02-18T23:17:50.842Z,1.80
2023-02-18T23:22:53.707Z,1.80
2023-02-18T23:27:56.593Z,2.17
2023-02-18T23:32:59.495Z,2.03
2023-02-18T23:38:05.129Z,1.93
2023-02-18T23:43:08.016Z,2.10
2023-02-18T23:48:10.911Z,2.30
2023-02-18T23:53:13.792Z,1.70
2023-02-18T23:58:16.652Z,1.30
